createdAt,value
2023-03-08T00:00:33.233Z,4.81
2023-03-08T00:02:35.113Z,4.78
2023-03-08T00:04:36.163Z,4.78
2023-03-08T00:06:37.185Z,4.75
2023-03-08T00:08:39.081Z,4.74
2023-03-08T00:10:40.320Z,4.71
2023-03-08T00:12:41.862Z,4.72
2023-03-08T00:14:43.375Z,4.7
2023-03-08T00:16:44.472Z,4.61
2023-03-08T00:18:45.971Z,4.63
2023-03-08T00:20:47.305Z,4.55
2023-03-08T00:22:49.074Z,4.52
2023-03-08T00:24:50.955Z,4.48
2023-03-08T00:26:52.881Z,4.49
2023-03-08T00:28:54.893Z,4.44
2023-03-08T00:30:55.867Z,4.4
2023-03-08T00:32:56.961Z,4.42
2023-03-08T00:34:57.975Z,4.33
2023-03-08T00:36:59.494Z,4.37
2023-03-08T00:39:01.192Z,4.31
2023-03-08T00:41:02.267Z,4.31
2023-03-08T00:43:03.643Z,4.18
2023-03-08T00:45:05.620Z,4.25
2023-03-08T00:47:07.278Z,4.16
2023-03-08T00:49:08.571Z,4.16
2023-03-08T00:51:09.953Z,4.14
2023-03-08T00:53:11.108Z,4.07
2023-03-08T00:55:12.711Z,4.1
2023-03-08T00:57:13.792Z,4.2
2023-03-08T00:59:15.042Z,4.15
2023-03-08T01:01:24.729Z,4.27
2023-03-08T01:03:18.662Z,4.3
2023-03-08T01:05:19.997Z,4.26
2023-03-08T01:08:05.232Z,4.11
2023-03-08T01:10:06.492Z,4.09
2023-03-08T01:12:07.707Z,4.12
2023-03-08T01:14:09.092Z,3.97
2023-03-08T01:16:11.187Z,4.02
2023-03-08T01:18:12.447Z,4.02
2023-03-08T01:20:13.525Z,4
2023-03-08T01:22:15.405Z,3.98
2023-03-08T01:24:16.906Z,3.97
2023-03-08T01:26:18.122Z,3.86
2023-03-08T01:28:19.487Z,3.98
2023-03-08T01:30:21.276Z,3.95
2023-03-08T01:32:23.324Z,3.79
2023-03-08T01:36:26.128Z,3.81
2023-03-08T01:38:27.677Z,3.87
2023-03-08T01:40:29.604Z,3.79
2023-03-08T01:42:31.238Z,3.87
2023-03-08T01:44:33.121Z,3.9
2023-03-08T01:46:34.475Z,3.89
2023-03-08T01:48:36.246Z,3.88
2023-03-08T01:50:38.010Z,3.93
2023-03-08T01:52:39.895Z,3.87
2023-03-08T01:54:41.198Z,3.86
2023-03-08T01:56:43.010Z,3.93
2023-03-08T01:58:44.344Z,3.89
2023-03-08T02:00:46.054Z,3.96
2023-03-08T02:02:47.428Z,3.91
2023-03-08T02:04:48.423Z,3.9
2023-03-08T02:06:50.420Z,4.02
2023-03-08T02:08:51.607Z,3.97
2023-03-08T02:10:53.525Z,3.91
2023-03-08T02:12:55.299Z,3.92
2023-03-08T02:14:57.008Z,3.86
2023-03-08T02:19:00.284Z,3.76
2023-03-08T02:21:01.604Z,3.77
2023-03-08T02:23:03.200Z,3.77
2023-03-08T02:25:04.979Z,3.75
2023-03-08T02:27:06.373Z,3.72
2023-03-08T02:29:07.814Z,3.72
2023-03-08T02:31:09.399Z,3.78
2023-03-08T02:33:11.185Z,3.83
2023-03-08T02:35:12.641Z,3.8
2023-03-08T02:37:14.195Z,3.77
2023-03-08T02:39:16.160Z,3.73
2023-03-08T02:41:17.785Z,3.78
2023-03-08T02:43:19.369Z,3.75
2023-03-08T02:45:20.773Z,3.71
2023-03-08T02:47:22.271Z,3.67
2023-03-08T02:49:24.102Z,3.63
2023-03-08T02:51:25.651Z,3.64
2023-03-08T02:53:27.216Z,3.59
2023-03-08T02:55:28.255Z,3.62
2023-03-08T02:57:29.898Z,3.59
2023-03-08T03:01:33.491Z,3.66
2023-03-08T03:03:34.722Z,3.71
2023-03-08T03:05:36.297Z,3.75
2023-03-08T03:07:37.410Z,3.61
2023-03-08T03:09:38.845Z,3.65
2023-03-08T03:11:39.927Z,3.68
2023-03-08T03:13:41.496Z,3.72
2023-03-08T03:15:42.647Z,3.7
2023-03-08T03:17:44.364Z,3.73
2023-03-08T03:19:45.710Z,3.74
2023-03-08T03:21:47.279Z,3.76
2023-03-08T03:23:48.824Z,3.74
2023-03-08T03:25:50.406Z,3.67
2023-03-08T03:27:51.988Z,3.71
2023-03-08T03:29:53.006Z,3.74
2023-03-08T03:31:55.019Z,3.74
2023-03-08T03:33:56.209Z,3.76
2023-03-08T03:35:57.351Z,3.75
2023-03-08T03:37:59.164Z,3.75
2023-03-08T03:40:00.612Z,3.72
2023-03-08T03:42:02.450Z,3.77
2023-03-08T03:44:03.643Z,3.71
2023-03-08T03:46:05.245Z,3.75
2023-03-08T03:48:06.727Z,3.7
2023-03-08T03:50:08.120Z,3.62
2023-03-08T03:52:09.535Z,3.61
2023-03-08T03:54:10.837Z,3.6
2023-03-08T03:56:12.348Z,3.55
2023-03-08T03:58:13.503Z,3.5
2023-03-08T04:00:15.228Z,3.55
2023-03-08T04:02:16.531Z,3.54
2023-03-08T04:04:18.006Z,3.56
2023-03-08T04:06:19.689Z,3.51
2023-03-08T04:08:21.521Z,3.46
2023-03-08T04:10:22.971Z,3.49
2023-03-08T04:12:24.766Z,3.41
2023-03-08T04:14:26.259Z,3.43
2023-03-08T04:16:29.317Z,3.39
2023-03-08T04:18:29.296Z,3.37
2023-03-08T04:20:30.568Z,3.4
2023-03-08T04:22:31.752Z,3.4
2023-03-08T04:24:33.744Z,3.4
2023-03-08T04:26:35.094Z,3.46
2023-03-08T04:28:36.226Z,3.38
2023-03-08T04:30:37.972Z,3.36
2023-03-08T04:32:39.511Z,3.27
2023-03-08T04:34:41.183Z,3.25
2023-03-08T04:36:42.931Z,3.17
2023-03-08T04:38:44.086Z,3.09
2023-03-08T04:40:46.078Z,3.09
2023-03-08T04:42:47.578Z,3.03
2023-03-08T04:44:48.846Z,3.03
2023-03-08T04:46:50.700Z,3.02
2023-03-08T04:48:52.152Z,2.99
2023-03-08T04:50:53.967Z,3.04
2023-03-08T04:52:55.231Z,3.02
2023-03-08T04:54:56.671Z,2.98
2023-03-08T04:56:57.757Z,2.96
2023-03-08T04:58:58.971Z,2.93
2023-03-08T05:01:00.879Z,2.91
2023-03-08T05:03:02.315Z,2.88
2023-03-08T05:05:03.442Z,2.83
2023-03-08T05:07:05.424Z,2.8
2023-03-08T05:09:07.357Z,2.8
2023-03-08T05:11:08.508Z,2.75
2023-03-08T05:13:09.915Z,2.76
2023-03-08T05:15:11.819Z,2.75
2023-03-08T05:17:13.392Z,2.76
2023-03-08T05:19:14.670Z,2.76
2023-03-08T05:21:15.764Z,2.81
2023-03-08T05:23:17.000Z,2.8
2023-03-08T05:25:18.944Z,2.81
2023-03-08T05:27:20.876Z,2.81
2023-03-08T05:29:22.030Z,2.79
2023-03-08T05:31:24.089Z,2.78
2023-03-08T05:33:25.529Z,2.83
2023-03-08T05:35:27.578Z,2.83
2023-03-08T05:37:29.432Z,2.8
2023-03-08T05:39:31.345Z,2.8
2023-03-08T05:41:32.473Z,2.8
2023-03-08T05:43:33.682Z,2.81
2023-03-08T05:45:34.970Z,2.84
2023-03-08T05:47:36.433Z,2.83
2023-03-08T05:49:38.347Z,2.83
2023-03-08T05:51:39.763Z,2.82
2023-03-08T05:53:41.713Z,2.83
2023-03-08T05:55:43.444Z,2.84
2023-03-08T05:57:44.678Z,2.82
2023-03-08T05:59:46.199Z,2.83
2023-03-08T06:01:47.297Z,2.81
2023-03-08T06:03:49.149Z,2.83
2023-03-08T06:05:50.545Z,2.83
2023-03-08T06:07:51.950Z,2.87
2023-03-08T06:09:53.581Z,2.86
2023-03-08T06:11:55.524Z,2.84
2023-03-08T06:13:57.157Z,2.86
2023-03-08T06:15:58.650Z,2.87
2023-03-08T06:17:59.734Z,2.87
2023-03-08T06:20:01.153Z,2.9
2023-03-08T06:22:02.431Z,2.88
2023-03-08T06:24:04.381Z,2.96
2023-03-08T06:26:05.435Z,2.96
2023-03-08T06:28:07.207Z,2.96
2023-03-08T06:30:09.083Z,3.01
2023-03-08T06:32:10.803Z,3
2023-03-08T06:34:12.713Z,3.16
2023-03-08T06:36:14.313Z,3.09
2023-03-08T06:38:16.208Z,3.09
2023-03-08T06:40:17.707Z,3.09
2023-03-08T06:42:20.975Z,3.12
2023-03-08T06:44:20.337Z,3.1
2023-03-08T06:46:22.108Z,3.15
2023-03-08T06:48:24.077Z,3.17
2023-03-08T06:50:25.956Z,3.22
2023-03-08T06:52:27.396Z,3.17
2023-03-08T06:54:29.184Z,3.2
2023-03-08T06:56:30.327Z,3.11
2023-03-08T06:58:32.013Z,3.12
2023-03-08T07:00:34.028Z,3.04
2023-03-08T07:02:36.003Z,2.93
2023-03-08T07:04:37.171Z,3
2023-03-08T07:06:38.174Z,2.95
2023-03-08T07:08:39.842Z,2.9
2023-03-08T07:10:41.679Z,2.86
2023-03-08T07:12:42.691Z,2.82
2023-03-08T07:14:44.254Z,2.82
2023-03-08T07:16:45.698Z,2.8
2023-03-08T07:18:47.013Z,2.84
2023-03-08T07:20:48.560Z,2.85
2023-03-08T07:22:49.936Z,2.87
2023-03-08T07:24:51.749Z,2.92
2023-03-08T07:26:53.501Z,2.93
2023-03-08T07:28:54.905Z,2.88
2023-03-08T07:30:56.023Z,2.89
2023-03-08T07:32:57.847Z,2.87
2023-03-08T07:34:59.406Z,2.85
2023-03-08T07:37:01.137Z,2.85
2023-03-08T07:39:02.511Z,2.85
2023-03-08T07:41:03.878Z,2.86
2023-03-08T07:43:05.486Z,2.87
2023-03-08T07:45:07.385Z,2.8
2023-03-08T07:47:09.049Z,2.83
2023-03-08T07:49:11.043Z,2.79
2023-03-08T07:51:13.074Z,2.82
2023-03-08T07:53:58.432Z,2.81
2023-03-08T07:55:59.660Z,2.87
2023-03-08T07:58:01.621Z,2.91
2023-03-08T08:00:03.169Z,2.99
2023-03-08T08:02:04.502Z,2.97
2023-03-08T08:04:06.347Z,2.97
2023-03-08T08:06:07.872Z,2.87
2023-03-08T08:08:09.607Z,2.65
2023-03-08T08:10:10.612Z,2.37
2023-03-08T08:12:11.925Z,2.25
2023-03-08T08:14:13.660Z,2.16
2023-03-08T08:16:16.384Z,2.14
2023-03-08T08:18:16.502Z,2
2023-03-08T08:20:18.183Z,1.85
2023-03-08T08:22:19.242Z,1.81
2023-03-08T08:24:21.067Z,1.72
2023-03-08T08:26:22.446Z,1.68
2023-03-08T08:28:24.096Z,1.56
2023-03-08T08:30:25.615Z,1.47
2023-03-08T08:32:26.709Z,1.37
2023-03-08T08:34:28.343Z,1.34
2023-03-08T08:36:29.845Z,1.24
2023-03-08T08:38:31.036Z,1.23
2023-03-08T08:40:32.563Z,1.21
2023-03-08T08:42:34.278Z,1.22
2023-03-08T08:44:35.904Z,1.13
2023-03-08T08:46:37.881Z,1.12
2023-03-08T08:48:39.438Z,1.13
2023-03-08T08:50:40.780Z,1.03
2023-03-08T08:52:42.190Z,1.05
2023-03-08T08:54:44.257Z,1.12
2023-03-08T08:56:46.054Z,1.12
2023-03-08T08:58:47.112Z,1.1
2023-03-08T09:00:48.788Z,1.06
2023-03-08T09:02:50.705Z,1.09
2023-03-08T09:04:52.070Z,1.1
2023-03-08T09:06:53.374Z,1.13
2023-03-08T09:08:55.443Z,1.22
2023-03-08T09:10:57.399Z,1.3
2023-03-08T09:12:58.980Z,1.33
2023-03-08T09:14:59.974Z,1.35
2023-03-08T09:17:01.961Z,1.42
2023-03-08T09:19:03.031Z,1.52
2023-03-08T09:21:04.841Z,1.48
2023-03-08T09:23:06.424Z,1.65
2023-03-08T09:25:07.497Z,1.62
2023-03-08T09:27:09.332Z,1.64
2023-03-08T09:29:11.110Z,1.65
2023-03-08T09:31:12.163Z,1.61
2023-03-08T09:33:13.308Z,1.71
2023-03-08T09:35:15.220Z,1.77
2023-03-08T09:37:16.486Z,1.72
2023-03-08T09:39:17.708Z,1.79
2023-03-08T09:41:19.461Z,1.89
2023-03-08T09:43:20.844Z,1.93
2023-03-08T09:45:21.901Z,1.89
2023-03-08T09:47:23.406Z,2.04
2023-03-08T09:49:24.499Z,2.13
2023-03-08T09:51:25.701Z,2.15
2023-03-08T09:53:27.742Z,2.03
2023-03-08T09:55:29.480Z,2.05
2023-03-08T09:57:30.760Z,2.13
2023-03-08T09:59:32.168Z,2.19
2023-03-08T10:01:33.849Z,2.19
2023-03-08T10:03:36.320Z,2.24
2023-03-08T10:07:37.781Z,2.28
2023-03-08T10:09:39.659Z,2.34
2023-03-08T10:11:41.253Z,2.24
2023-03-08T10:13:43.140Z,2.36
2023-03-08T10:15:44.732Z,2.42
2023-03-08T10:17:46.062Z,2.48
2023-03-08T10:19:47.681Z,2.52
2023-03-08T10:21:48.753Z,2.56
2023-03-08T10:23:50.000Z,2.58
2023-03-08T10:25:51.229Z,2.56
2023-03-08T10:27:53.135Z,2.58
2023-03-08T10:29:55.149Z,2.65
2023-03-08T10:31:56.528Z,2.66
2023-03-08T10:33:58.140Z,2.64
2023-03-08T10:36:00.291Z,2.67
2023-03-08T10:38:01.939Z,2.73
2023-03-08T10:40:03.574Z,2.65
2023-03-08T10:42:04.576Z,2.7
2023-03-08T10:44:05.764Z,2.77
2023-03-08T10:46:07.321Z,2.76
2023-03-08T10:50:10.384Z,2.75
2023-03-08T10:52:11.957Z,2.82
2023-03-08T10:54:13.345Z,2.78
2023-03-08T10:56:15.349Z,2.8
2023-03-08T10:58:16.787Z,2.8
2023-03-08T11:00:18.030Z,2.89
2023-03-08T11:02:19.168Z,2.87
2023-03-08T11:04:20.461Z,2.93
2023-03-08T11:06:22.360Z,3
2023-03-08T11:08:23.802Z,3.05
2023-03-08T11:10:25.516Z,3.02
2023-03-08T11:12:27.044Z,3.04
2023-03-08T11:14:28.722Z,3.01
2023-03-08T11:16:30.158Z,3.04
2023-03-08T11:18:31.304Z,3.05
2023-03-08T11:20:33.079Z,3.09
2023-03-08T11:22:34.975Z,3.11
2023-03-08T11:24:36.408Z,3.14
2023-03-08T11:26:38.224Z,3.28
2023-03-08T11:28:39.588Z,3.34
2023-03-08T11:30:41.341Z,3.39
2023-03-08T11:32:42.470Z,3.61
2023-03-08T11:34:44.298Z,3.55
2023-03-08T11:36:46.150Z,3.55
2023-03-08T11:38:47.468Z,3.64
2023-03-08T11:40:49.232Z,3.61
2023-03-08T11:42:50.548Z,3.65
2023-03-08T11:44:52.000Z,3.7
2023-03-08T11:46:53.090Z,3.72
2023-03-08T11:48:54.457Z,3.83
2023-03-08T11:50:55.860Z,3.81
2023-03-08T11:52:57.070Z,3.81
2023-03-08T11:54:58.597Z,3.81
2023-03-08T11:56:59.999Z,3.83
2023-03-08T11:59:01.706Z,3.85
2023-03-08T12:01:02.784Z,3.84
2023-03-08T12:03:04.304Z,3.92
2023-03-08T12:05:05.520Z,3.91
2023-03-08T12:07:07.239Z,4.01
2023-03-08T12:09:08.589Z,3.99
2023-03-08T12:11:09.884Z,3.97
2023-03-08T12:13:11.771Z,3.96
2023-03-08T12:15:13.337Z,3.97
2023-03-08T12:17:14.664Z,3.99
2023-03-08T12:19:15.728Z,4.08
2023-03-08T12:21:16.870Z,4.06
2023-03-08T12:23:18.516Z,4.11
2023-03-08T12:25:19.738Z,4.17
2023-03-08T12:27:21.700Z,4.14
2023-03-08T12:29:23.614Z,4.23
2023-03-08T12:31:28.579Z,4.28
2023-03-08T12:33:25.875Z,4.3
2023-03-08T12:35:27.362Z,4.36
2023-03-08T12:37:28.734Z,4.35
2023-03-08T12:39:30.589Z,4.42
2023-03-08T12:41:32.516Z,4.46
2023-03-08T12:43:33.969Z,4.51
2023-03-08T12:45:35.006Z,4.51
2023-03-08T12:47:44.649Z,4.57
2023-03-08T12:49:38.602Z,4.66
2023-03-08T12:51:48.455Z,4.76
2023-03-08T12:53:41.720Z,4.8
2023-03-08T12:55:42.773Z,4.85
2023-03-08T12:57:44.566Z,4.92
2023-03-08T12:59:46.082Z,5.02
2023-03-08T13:01:47.442Z,5.07
2023-03-08T13:03:48.991Z,5.17
2023-03-08T13:05:49.965Z,5.25
2023-03-08T13:07:51.308Z,5.36
2023-03-08T13:09:53.009Z,5.39
2023-03-08T13:11:54.591Z,5.47
2023-03-08T13:13:55.780Z,5.57
2023-03-08T13:15:57.270Z,5.7
2023-03-08T13:17:59.180Z,5.8
2023-03-08T13:20:01.034Z,5.82
2023-03-08T13:22:02.915Z,5.88
2023-03-08T13:24:04.727Z,5.91
2023-03-08T13:26:05.785Z,5.93
2023-03-08T13:28:07.074Z,5.98
2023-03-08T13:30:08.883Z,6.04
2023-03-08T13:32:10.688Z,6.07
2023-03-08T13:34:12.069Z,6.08
2023-03-08T13:36:13.759Z,6.15
2023-03-08T13:38:14.866Z,6.21
2023-03-08T13:40:16.189Z,6.3
2023-03-08T13:42:17.906Z,6.32
2023-03-08T13:44:19.600Z,6.38
2023-03-08T13:46:21.196Z,6.41
2023-03-08T13:48:22.218Z,6.49
2023-03-08T13:50:23.765Z,6.55
2023-03-08T13:52:24.810Z,6.58
2023-03-08T13:56:28.142Z,6.68
2023-03-08T13:58:29.365Z,6.81
2023-03-08T14:00:30.502Z,6.82
2023-03-08T14:02:31.746Z,6.86
2023-03-08T14:04:33.319Z,6.91
2023-03-08T14:06:34.543Z,6.98
2023-03-08T14:08:35.767Z,7.01
2023-03-08T14:10:37.097Z,7.09
2023-03-08T14:12:38.265Z,7.21
2023-03-08T14:14:39.255Z,7.23
2023-03-08T14:16:40.935Z,7.34
2023-03-08T14:18:42.179Z,7.43
2023-03-08T14:20:43.701Z,7.51
2023-03-08T14:22:45.124Z,7.52
2023-03-08T14:24:47.016Z,7.56
2023-03-08T14:26:49.583Z,7.63
2023-03-08T14:28:50.387Z,7.72
2023-03-08T14:30:52.317Z,7.74
2023-03-08T14:32:53.387Z,7.86
2023-03-08T14:34:54.780Z,7.87
2023-03-08T14:36:56.081Z,7.87
2023-03-08T14:39:41.411Z,7.82
2023-03-08T14:41:43.061Z,7.78
2023-03-08T14:43:44.158Z,7.75
2023-03-08T14:45:45.610Z,7.7
2023-03-08T14:47:47.432Z,7.73
2023-03-08T14:49:49.192Z,7.69
2023-03-08T14:51:50.124Z,7.68
2023-03-08T14:53:51.441Z,7.61
2023-03-08T14:55:52.972Z,7.56
2023-03-08T14:57:54.064Z,7.42
2023-03-08T14:59:55.385Z,7.53
2023-03-08T15:01:56.937Z,7.72
2023-03-08T15:03:58.265Z,7.68
2023-03-08T15:05:59.830Z,7.69
2023-03-08T15:08:01.350Z,7.68
2023-03-08T15:10:03.279Z,7.66
2023-03-08T15:12:04.305Z,7.72
2023-03-08T15:14:06.053Z,7.84
2023-03-08T15:16:07.362Z,7.79
2023-03-08T15:18:08.921Z,7.82
2023-03-08T15:20:10.760Z,7.8
2023-03-08T15:22:13.713Z,7.82
2023-03-08T15:24:13.544Z,7.79
2023-03-08T15:26:14.832Z,7.77
2023-03-08T15:28:16.040Z,7.8
2023-03-08T15:30:17.885Z,7.78
2023-03-08T15:32:19.275Z,7.88
2023-03-08T15:34:20.678Z,7.88
2023-03-08T15:36:22.059Z,7.93
2023-03-08T15:38:23.400Z,7.89
2023-03-08T15:40:25.531Z,7.9
2023-03-08T15:42:26.573Z,7.93
2023-03-08T15:44:27.536Z,7.94
2023-03-08T15:46:28.749Z,8.04
2023-03-08T15:48:30.391Z,8.01
2023-03-08T15:50:31.482Z,8.03
2023-03-08T15:52:33.025Z,7.99
2023-03-08T15:54:34.342Z,7.92
2023-03-08T15:56:35.721Z,7.94
2023-03-08T15:58:37.094Z,7.94
2023-03-08T16:00:38.517Z,7.92
2023-03-08T16:02:40.057Z,7.87
2023-03-08T16:04:41.385Z,8
2023-03-08T16:06:42.749Z,8.06
2023-03-08T16:08:43.869Z,8.02
2023-03-08T16:43:09.455Z,8.65
2023-03-08T16:45:10.525Z,8.65
2023-03-08T16:47:12.449Z,8.8
2023-03-08T16:49:14.301Z,8.76
2023-03-08T16:51:16.246Z,8.75
2023-03-08T16:53:17.350Z,8.69
2023-03-08T16:55:18.997Z,8.64
2023-03-08T16:57:20.363Z,8.62
2023-03-08T16:59:21.874Z,8.69
2023-03-08T17:01:22.928Z,8.73
2023-03-08T17:03:24.752Z,8.7
2023-03-08T17:05:26.437Z,8.61
2023-03-08T17:07:28.137Z,8.73
2023-03-08T17:09:29.422Z,8.76
2023-03-08T17:11:30.927Z,8.75
2023-03-08T17:13:32.771Z,8.7
2023-03-08T17:15:33.883Z,8.71
2023-03-08T17:17:34.821Z,8.7
2023-03-08T17:19:37.853Z,8.67
2023-03-08T17:21:38.282Z,8.69
2023-03-08T17:23:39.577Z,8.75
2023-03-08T17:25:41.203Z,8.77
2023-03-08T17:27:42.371Z,8.71
2023-03-08T17:29:43.856Z,8.68
2023-03-08T17:31:45.138Z,8.64
2023-03-08T17:33:46.545Z,8.51
2023-03-08T17:35:47.638Z,8.48
2023-03-08T17:37:48.898Z,8.43
2023-03-08T17:39:50.404Z,8.45
2023-03-08T17:41:52.279Z,8.52
2023-03-08T17:43:53.286Z,8.5
2023-03-08T17:45:55.152Z,8.44
2023-03-08T17:47:56.655Z,8.4
2023-03-08T17:49:57.822Z,8.43
2023-03-08T17:51:58.994Z,8.43
2023-03-08T17:54:00.184Z,8.44
2023-03-08T17:56:01.126Z,8.43
2023-03-08T17:58:02.498Z,8.44
2023-03-08T18:00:04.224Z,8.45
2023-03-08T18:02:05.549Z,8.5
2023-03-08T18:04:07.392Z,8.45
2023-03-08T18:06:09.217Z,8.42
2023-03-08T18:08:10.264Z,8.44
2023-03-08T18:10:11.787Z,8.48
2023-03-08T18:12:13.028Z,8.47
2023-03-08T18:14:14.417Z,8.47
2023-03-08T18:16:16.209Z,8.4
2023-03-08T18:18:18.071Z,8.47
2023-03-08T18:20:19.911Z,8.45
2023-03-08T18:22:21.110Z,8.43
2023-03-08T18:24:22.509Z,8.37
2023-03-08T18:26:24.250Z,8.37
2023-03-08T18:28:25.813Z,8.38
2023-03-08T18:30:27.384Z,8.39
2023-03-08T18:32:28.798Z,8.37
2023-03-08T18:34:29.783Z,8.37
2023-03-08T18:36:31.277Z,8.33
2023-03-08T18:38:33.245Z,8.33
2023-03-08T18:40:42.845Z,8.3
2023-03-08T18:42:36.781Z,8.32
2023-03-08T18:44:38.563Z,8.29
2023-03-08T18:46:39.636Z,8.26
2023-03-08T18:48:40.632Z,8.26
2023-03-08T18:50:42.399Z,8.24
2023-03-08T18:52:43.663Z,8.16
2023-03-08T18:54:44.758Z,8.16
2023-03-08T18:56:46.677Z,8.16
2023-03-08T18:58:48.349Z,8.2
2023-03-08T19:00:49.604Z,8.09
2023-03-08T19:02:51.474Z,8.11
2023-03-08T19:04:53.047Z,8.09
2023-03-08T19:06:54.181Z,8.06
2023-03-08T19:08:55.944Z,8.09
2023-03-08T19:10:57.597Z,8.08
2023-03-08T19:12:58.851Z,8.08
2023-03-08T19:14:59.993Z,8.06
2023-03-08T19:17:01.947Z,8.03
2023-03-08T19:21:05.176Z,8.03
2023-03-08T19:23:06.656Z,8.03
2023-03-08T19:25:08.489Z,8.02
2023-03-08T19:27:10.219Z,8.01
2023-03-08T19:29:11.710Z,8
2023-03-08T19:31:13.055Z,7.99
2023-03-08T19:33:24.824Z,7.95
2023-03-08T19:35:16.193Z,7.98
2023-03-08T19:37:17.729Z,7.95
2023-03-08T19:39:18.685Z,7.97
2023-03-08T19:41:19.753Z,7.93
2023-03-08T19:43:21.024Z,7.94
2023-03-08T19:45:22.186Z,7.97
2023-03-08T19:47:23.612Z,7.93
2023-03-08T19:49:25.554Z,7.86
2023-03-08T19:51:26.746Z,7.86
2023-03-08T19:53:28.380Z,7.84
2023-03-08T19:55:29.625Z,7.85
2023-03-08T19:57:31.507Z,7.84
2023-03-08T19:59:33.056Z,7.82
2023-03-08T20:01:34.281Z,7.81
2023-03-08T20:03:35.606Z,7.78
2023-03-08T20:05:36.572Z,7.79
2023-03-08T20:07:38.064Z,7.8
2023-03-08T20:09:39.953Z,7.76
2023-03-08T20:11:41.115Z,7.72
2023-03-08T20:13:42.822Z,7.73
2023-03-08T20:15:44.137Z,7.73
2023-03-08T20:17:47.293Z,7.73
2023-03-08T20:19:46.748Z,7.7
2023-03-08T20:21:47.715Z,7.66
2023-03-08T20:23:49.030Z,7.64
2023-03-08T20:25:50.647Z,7.66
2023-03-08T20:27:52.137Z,7.66
2023-03-08T20:29:54.052Z,7.67
2023-03-08T20:31:55.749Z,7.61
2023-03-08T20:33:57.040Z,7.62
2023-03-08T20:35:58.638Z,7.61
2023-03-08T20:37:59.835Z,7.58
2023-03-08T20:40:01.685Z,7.57
2023-03-08T20:42:03.218Z,7.58
2023-03-08T20:44:04.638Z,7.55
2023-03-08T20:46:06.189Z,7.54
2023-03-08T20:48:07.598Z,7.6
2023-03-08T20:50:09.039Z,7.55
2023-03-08T20:52:10.757Z,7.56
2023-03-08T20:54:12.619Z,7.55
2023-03-08T20:56:13.982Z,7.53
2023-03-08T20:58:15.555Z,7.58
2023-03-08T21:00:17.292Z,7.6
2023-03-08T21:02:18.353Z,7.58
2023-03-08T21:04:20.229Z,7.56
2023-03-08T21:06:22.111Z,7.52
2023-03-08T21:08:23.140Z,7.5
2023-03-08T21:10:24.459Z,7.49
2023-03-08T21:12:25.849Z,7.48
2023-03-08T21:14:27.157Z,7.46
2023-03-08T21:16:29.069Z,7.47
2023-03-08T21:18:30.173Z,7.47
2023-03-08T21:20:31.326Z,7.47
2023-03-08T21:22:32.376Z,7.47
2023-03-08T21:23:16.201Z,7.47
2023-03-08T21:25:17.474Z,7.5
2023-03-08T21:27:18.695Z,7.49
2023-03-08T21:29:20.170Z,7.52
2023-03-08T21:31:21.189Z,7.52
2023-03-08T21:33:23.027Z,7.47
2023-03-08T21:35:24.936Z,7.52
2023-03-08T21:37:26.688Z,7.53
2023-03-08T21:39:28.378Z,7.53
2023-03-08T21:41:29.278Z,7.56
2023-03-08T21:43:31.207Z,7.62
2023-03-08T21:45:32.200Z,7.69
2023-03-08T21:47:34.137Z,7.69
2023-03-08T21:49:35.645Z,7.72
2023-03-08T21:51:36.652Z,7.72
2023-03-08T21:53:38.129Z,7.78
2023-03-08T21:55:39.820Z,7.78
2023-03-08T21:57:41.050Z,7.79
2023-03-08T21:59:42.668Z,7.81
2023-03-08T22:01:44.102Z,7.79
2023-03-08T22:03:45.167Z,7.81
2023-03-08T22:05:46.062Z,7.81
2023-03-08T22:07:48.018Z,7.83
2023-03-08T22:09:49.594Z,7.83
2023-03-08T22:11:51.473Z,7.83
2023-03-08T22:13:52.591Z,7.81
2023-03-08T22:15:53.715Z,7.78
2023-03-08T22:17:55.172Z,7.79
2023-03-08T22:19:56.766Z,7.78
2023-03-08T22:21:57.915Z,7.8
2023-03-08T22:23:59.607Z,7.79
2023-03-08T22:26:00.881Z,7.81
2023-03-08T22:28:01.896Z,7.84
2023-03-08T22:30:03.143Z,7.89
2023-03-08T22:32:04.057Z,7.93
2023-03-08T22:34:05.650Z,7.95
2023-03-08T22:36:07.337Z,7.89
2023-03-08T22:38:08.736Z,8.01
2023-03-08T22:40:10.100Z,8.03
2023-03-08T22:42:11.080Z,8.04
2023-03-08T22:44:12.333Z,8.11
2023-03-08T22:46:14.007Z,8.15
2023-03-08T22:48:15.370Z,8.2
2023-03-08T22:50:17.071Z,8.3
2023-03-08T22:52:18.196Z,8.31
2023-03-08T22:54:19.931Z,8.37
2023-03-08T22:56:21.690Z,8.44
2023-03-08T22:58:23.571Z,8.4
2023-03-08T23:00:25.028Z,8.41
2023-03-08T23:02:26.637Z,8.37
2023-03-08T23:04:27.703Z,8.45
2023-03-08T23:06:28.808Z,8.44
2023-03-08T23:08:30.012Z,8.5
2023-03-08T23:10:31.519Z,8.44
2023-03-08T23:12:32.600Z,8.4
2023-03-08T23:14:33.665Z,8.37
2023-03-08T23:16:35.005Z,8.45
2023-03-08T23:18:35.896Z,8.46
2023-03-08T23:20:37.729Z,8.54
2023-03-08T23:22:39.384Z,8.66
2023-03-08T23:24:40.644Z,8.71
2023-03-08T23:26:42.554Z,8.79
2023-03-08T23:28:44.465Z,8.81
2023-03-08T23:30:45.845Z,8.82
2023-03-08T23:32:47.197Z,8.83
2023-03-08T23:36:50.164Z,8.87
2023-03-08T23:38:51.826Z,8.93
2023-03-08T23:40:53.170Z,8.94
2023-03-08T23:42:54.171Z,9.01
2023-03-08T23:44:56.018Z,8.99
2023-03-08T23:46:57.821Z,9.03
2023-03-08T23:48:59.170Z,9.07
2023-03-08T23:51:00.822Z,9.12
2023-03-08T23:53:02.169Z,9.1
2023-03-08T23:55:03.295Z,9.15
2023-03-08T23:57:04.708Z,9.21
2023-03-08T23:59:06.245Z,9.18
